Time,TemperatureF,DewpointF,PressureIn,WindDirection,WindDirectionDegrees,WindSpeedMPH,WindSpeedGustMPH,Humidity,HourlyPrecipIn,Conditions,Clouds,dailyrainin,SoftwareType,DateUTC
2015-01-29 00:02:00,30.0,28.2,30.43,East,86,0.0,0.0,93,0.00,,,0.00,VWS V15.00,2015-01-29 07:02:00,
2015-01-29 00:06:00,29.8,28.0,30.43,East,86,0.0,0.0,93,0.00,,,0.00,VWS V15.00,2015-01-29 07:06:00,
2015-01-29 00:11:00,29.5,27.5,30.42,East,86,0.0,0.0,92,0.00,,,0.00,VWS V15.00,2015-01-29 07:11:00,
2015-01-29 00:16:00,29.4,27.4,30.42,East,86,0.0,0.0,92,0.00,,,0.00,VWS V15.00,2015-01-29 07:16:00,
2015-01-29 00:21:00,29.0,27.0,30.42,East,86,0.0,0.0,92,0.00,,,0.00,VWS V15.00,2015-01-29 07:21:00,
2015-01-29 00:26:00,28.7,26.7,30.43,East,86,0.0,0.0,92,0.00,,,0.00,VWS V15.00,2015-01-29 07:26:00,
2015-01-29 00:31:00,28.7,26.7,30.43,East,86,0.0,0.0,92,0.00,,,0.00,VWS V15.00,2015-01-29 07:31:00,
2015-01-29 00:36:00,28.7,26.7,30.43,East,86,0.0,0.0,92,0.00,,,0.00,VWS V15.00,2015-01-29 07:36:00,
2015-01-29 00:41:00,28.7,26.9,30.43,East,86,0.0,0.0,93,0.00,,,0.00,VWS V15.00,2015-01-29 07:41:00,
2015-01-29 00:46:00,28.5,26.7,30.43,East,86,0.0,0.0,93,0.00,,,0.00,VWS V15.00,2015-01-29 07:46:00,
2015-01-29 00:51:00,28.8,27.0,30.43,East,86,0.0,0.0,93,0.00,,,0.00,VWS V15.00,2015-01-29 07:51:00,
2015-01-29 00:56:00,29.1,27.3,30.43,East,86,0.0,0.0,93,0.00,,,0.00,VWS V15.00,2015-01-29 07:56:00,
2015-01-29 01:01:00,29.3,27.5,30.43,East,86,0.0,0.0,93,0.00,,,0.00,VWS V15.00,2015-01-29 08:01:00,
2015-01-29 01:06:00,29.0,27.2,30.43,East,86,2.0,2.0,93,0.00,,,0.00,VWS V15.00,2015-01-29 08:06:00,
2015-01-29 01:11:00,28.2,26.2,30.44,East,86,0.0,2.0,92,0.00,,,0.00,VWS V15.00,2015-01-29 08:11:00,
2015-01-29 01:16:00,27.5,25.5,30.44,East,86,0.0,0.0,92,0.00,,,0.00,VWS V15.00,2015-01-29 08:16:00,
2015-01-29 01:21:00,27.0,25.0,30.44,East,86,0.0,0.0,92,0.00,,,0.00,VWS V15.00,2015-01-29 08:21:00,
2015-01-29 01:26:00,27.0,25.0,30.44,East,86,0.0,0.0,92,0.00,,,0.00,VWS V15.00,2015-01-29 08:26:00,
2015-01-29 01:31:00,26.9,24.9,30.44,East,86,0.0,0.0,92,0.00,,,0.00,VWS V15.00,2015-01-29 08:31:00,
2015-01-29 01:36:00,26.9,24.9,30.44,East,86,0.0,0.0,92,0.00,,,0.00,VWS V15.00,2015-01-29 08:36:00,
2015-01-29 01:42:00,27.0,25.2,30.45,East,86,0.0,0.0,93,0.00,,,0.00,VWS V15.00,2015-01-29 08:42:00,
2015-01-29 01:47:00,27.2,25.5,30.45,East,86,0.0,0.0,93,0.00,,,0.00,VWS V15.00,2015-01-29 08:47:00,
2015-01-29 01:52:00,27.3,25.5,30.45,East,86,0.0,0.0,93,0.00,,,0.00,VWS V15.00,2015-01-29 08:52:00,
2015-01-29 01:57:00,27.3,25.5,30.45,East,86,0.0,0.0,93,0.00,,,0.00,VWS V15.00,2015-01-29 08:57:00,
2015-01-29 02:02:00,27.2,25.5,30.45,East,86,0.0,0.0,93,0.00,,,0.00,VWS V15.00,2015-01-29 09:02:00,
2015-01-29 02:07:00,27.2,25.5,30.45,East,86,0.0,0.0,93,0.00,,,0.00,VWS V15.00,2015-01-29 09:07:00,